createdAt,value
2018-07-12T00:01:30.760Z,8.63
2018-07-12T00:03:59.019Z,8.90
2018-07-12T00:06:27.251Z,8.30
2018-07-12T00:08:55.730Z,8.40
2018-07-12T00:11:23.918Z,9.30
2018-07-12T00:13:52.458Z,8.73
2018-07-12T00:16:20.569Z,9.20
2018-07-12T00:18:48.838Z,8.80
2018-07-12T00:21:17.046Z,8.70
2018-07-12T00:23:45.237Z,8.73
2018-07-12T00:26:13.443Z,8.50
2018-07-12T00:28:41.726Z,8.47
2018-07-12T00:31:10.006Z,8.50
2018-07-12T00:33:38.311Z,8.53
2018-07-12T00:36:06.800Z,8.90
2018-07-12T00:38:35.054Z,8.37
2018-07-12T00:41:03.338Z,8.73
2018-07-12T00:43:31.590Z,8.40
2018-07-12T00:45:59.904Z,8.30
2018-07-12T00:48:28.134Z,8.30
2018-07-12T00:50:56.465Z,8.80
2018-07-12T00:53:24.744Z,8.43
2018-07-12T00:55:52.987Z,8.23
2018-07-12T00:58:21.252Z,8.40
2018-07-12T01:00:49.438Z,8.30
2018-07-12T01:03:17.716Z,8.60
2018-07-12T01:05:45.910Z,8.73
2018-07-12T01:08:14.125Z,8.60
2018-07-12T01:10:42.333Z,8.27
2018-07-12T01:13:10.514Z,8.70
2018-07-12T01:15:38.761Z,8.37
2018-07-12T01:18:06.963Z,8.07
2018-07-12T01:20:35.221Z,8.30
2018-07-12T01:23:03.427Z,8.50
2018-07-12T01:25:31.682Z,8.40
2018-07-12T01:27:59.969Z,8.90
2018-07-12T01:30:28.246Z,8.73
2018-07-12T01:32:56.424Z,8.47
2018-07-12T01:35:24.760Z,8.83
2018-07-12T01:37:53.268Z,8.57
2018-07-12T01:40:21.369Z,8.90
2018-07-12T01:42:49.649Z,8.77
2018-07-12T01:45:17.931Z,8.80
2018-07-12T01:47:46.114Z,9.07
2018-07-12T01:50:14.607Z,8.30
2018-07-12T01:52:42.696Z,8.87
2018-07-12T01:55:11.001Z,8.93
2018-07-12T01:57:39.290Z,8.93
2018-07-12T02:00:07.720Z,9.07
2018-07-12T02:02:35.901Z,9.67
2018-07-12T02:05:04.143Z,8.93
2018-07-12T02:07:32.354Z,9.03
2018-07-12T02:10:00.745Z,9.20
2018-07-12T02:12:28.982Z,9.73
2018-07-12T02:14:57.304Z,10.50
2018-07-12T02:17:25.690Z,10.00
2018-07-12T02:19:54.159Z,10.53
2018-07-12T02:22:22.279Z,10.70
2018-07-12T02:24:50.485Z,13.27
2018-07-12T02:27:18.716Z,12.63
2018-07-12T02:29:46.975Z,12.67
2018-07-12T02:32:15.273Z,13.00
2018-07-12T02:34:43.485Z,12.87
2018-07-12T02:37:11.810Z,11.93
2018-07-12T02:39:40.028Z,13.37
2018-07-12T02:42:08.303Z,13.23
2018-07-12T02:44:36.662Z,12.40
2018-07-12T02:47:04.963Z,12.63
2018-07-12T02:49:33.186Z,12.13
2018-07-12T02:52:01.420Z,12.53
2018-07-12T02:54:29.686Z,12.73
2018-07-12T02:56:57.974Z,11.77
2018-07-12T02:59:26.251Z,10.03
2018-07-12T03:01:54.468Z,9.93
2018-07-12T03:04:22.723Z,10.57
2018-07-12T03:06:50.973Z,9.83
2018-07-12T03:09:19.197Z,9.83
2018-07-12T03:11:47.412Z,10.00
2018-07-12T03:14:15.746Z,9.30
2018-07-12T03:16:44.005Z,9.60
2018-07-12T03:19:12.309Z,9.37
2018-07-12T03:21:40.527Z,8.67
2018-07-12T03:24:09.012Z,9.50
2018-07-12T03:26:37.157Z,9.93
2018-07-12T03:29:05.388Z,11.37
2018-07-12T03:31:33.616Z,9.90
2018-07-12T03:34:01.998Z,8.73
2018-07-12T03:36:30.189Z,8.90
2018-07-12T03:38:58.409Z,8.23
2018-07-12T03:41:26.907Z,8.43
2018-07-12T03:43:55.024Z,8.13
2018-07-12T03:46:23.304Z,8.57
2018-07-12T03:48:51.523Z,8.90
2018-07-12T03:51:19.728Z,8.00
2018-07-12T03:53:48.043Z,8.20
2018-07-12T03:56:16.213Z,8.43
2018-07-12T03:58:44.508Z,8.57
2018-07-12T04:01:12.884Z,9.17
2018-07-12T04:03:41.215Z,8.50
2018-07-12T04:06:09.444Z,8.53
2018-07-12T04:08:37.674Z,8.83
2018-07-12T04:11:06.142Z,9.30
2018-07-12T04:13:34.216Z,8.50
2018-07-12T04:16:02.469Z,9.67
2018-07-12T04:18:30.750Z,10.10
2018-07-12T04:20:59.342Z,9.67
2018-07-12T04:23:27.435Z,9.90
2018-07-12T04:25:56.953Z,9.53
2018-07-12T04:28:25.295Z,9.43
2018-07-12T04:30:53.526Z,10.00
2018-07-12T04:33:22.017Z,9.27
2018-07-12T04:35:50.237Z,9.70
2018-07-12T04:38:18.498Z,9.60
2018-07-12T04:40:46.817Z,8.83
2018-07-12T04:43:15.065Z,10.20
2018-07-12T04:45:43.346Z,10.07
2018-07-12T04:48:11.660Z,10.60
2018-07-12T04:50:40.248Z,10.63
2018-07-12T04:53:08.429Z,11.13
2018-07-12T04:55:36.709Z,11.10
2018-07-12T04:58:04.994Z,10.80
2018-07-12T05:00:33.238Z,11.03
2018-07-12T05:03:01.488Z,11.17
2018-07-12T05:05:29.800Z,11.17
2018-07-12T05:07:58.114Z,11.57
2018-07-12T05:10:26.372Z,10.77
2018-07-12T05:12:54.678Z,10.40
2018-07-12T05:15:22.957Z,10.73
2018-07-12T05:17:51.187Z,10.57
2018-07-12T05:20:19.747Z,11.27
2018-07-12T05:22:48.128Z,9.93
2018-07-12T05:25:16.392Z,10.27
2018-07-12T05:27:44.681Z,11.13
2018-07-12T05:30:13.010Z,9.87
2018-07-12T05:32:41.233Z,9.53
2018-07-12T05:35:09.822Z,9.97
2018-07-12T05:37:39.284Z,9.87
2018-07-12T05:40:08.803Z,9.77
2018-07-12T05:42:38.450Z,9.30
2018-07-12T05:45:07.980Z,9.53
2018-07-12T05:47:37.689Z,9.63
2018-07-12T05:50:07.271Z,8.07
2018-07-12T05:52:36.730Z,8.87
2018-07-12T05:55:05.998Z,8.23
2018-07-12T05:57:35.495Z,8.00
2018-07-12T06:00:05.524Z,7.60
2018-07-12T06:02:34.967Z,7.60
2018-07-12T06:05:05.333Z,7.40
2018-07-12T06:07:34.877Z,7.17
2018-07-12T06:10:04.500Z,7.33
2018-07-12T06:12:34.094Z,7.37
2018-07-12T06:15:03.784Z,7.27
2018-07-12T06:17:33.320Z,7.63
2018-07-12T06:20:02.841Z,6.37
2018-07-12T06:22:32.462Z,6.10
2018-07-12T06:25:02.010Z,7.30
2018-07-12T06:27:31.531Z,6.13
2018-07-12T06:30:01.070Z,5.93
2018-07-12T06:32:30.686Z,6.40
2018-07-12T06:35:00.133Z,6.03
2018-07-12T06:37:29.754Z,5.93
2018-07-12T06:39:59.590Z,5.70
2018-07-12T06:42:29.135Z,5.90
2018-07-12T06:44:58.739Z,6.13
2018-07-12T06:47:28.451Z,5.70
2018-07-12T06:49:57.945Z,6.00
2018-07-12T06:52:27.469Z,6.23
2018-07-12T06:54:57.185Z,6.47
2018-07-12T06:57:26.693Z,5.87
2018-07-12T06:59:56.153Z,5.90
2018-07-12T07:02:25.641Z,5.90
2018-07-12T07:04:55.170Z,5.77
2018-07-12T07:07:24.324Z,5.90
2018-07-12T07:09:53.657Z,5.70
2018-07-12T07:12:23.080Z,5.50
2018-07-12T07:14:52.618Z,4.70
2018-07-12T07:17:22.053Z,5.60
2018-07-12T07:19:51.558Z,5.30
2018-07-12T07:22:21.839Z,5.33
2018-07-12T07:24:51.500Z,5.77
2018-07-12T07:27:21.058Z,5.57
2018-07-12T07:29:50.559Z,5.70
2018-07-12T07:32:20.118Z,5.37
2018-07-12T07:34:49.615Z,5.40
2018-07-12T07:37:19.113Z,5.70
2018-07-12T07:39:48.658Z,5.37
2018-07-12T07:42:18.117Z,5.40
2018-07-12T07:44:47.677Z,5.87
2018-07-12T07:47:17.269Z,5.57
2018-07-12T07:49:46.709Z,5.30
2018-07-12T07:52:16.305Z,5.30
2018-07-12T07:54:45.798Z,5.57
2018-07-12T07:57:15.426Z,5.60
2018-07-12T07:59:45.120Z,5.67
2018-07-12T08:02:14.727Z,5.10
2018-07-12T08:04:44.241Z,4.93
2018-07-12T08:07:13.770Z,5.53
2018-07-12T08:09:43.380Z,5.07
2018-07-12T08:12:12.861Z,5.20
2018-07-12T08:14:42.705Z,5.10
2018-07-12T08:17:12.319Z,4.87
2018-07-12T08:19:42.036Z,4.93
2018-07-12T08:22:11.781Z,5.20
2018-07-12T08:24:41.075Z,5.67
2018-07-12T08:27:10.413Z,4.83
2018-07-12T08:29:39.840Z,5.07
2018-07-12T08:32:09.322Z,4.93
2018-07-12T08:34:38.828Z,5.13
2018-07-12T08:37:08.314Z,4.93
2018-07-12T08:39:37.854Z,4.83
2018-07-12T08:42:07.420Z,5.10
2018-07-12T08:44:36.872Z,5.10
2018-07-12T08:47:06.150Z,5.30
2018-07-12T08:49:35.621Z,5.10
2018-07-12T08:52:05.140Z,4.40
2018-07-12T08:54:34.783Z,4.00
2018-07-12T08:57:04.566Z,4.10
2018-07-12T08:59:34.053Z,3.90
2018-07-12T09:02:03.587Z,3.90
2018-07-12T09:04:33.213Z,4.30
2018-07-12T09:07:03.425Z,4.70
2018-07-12T09:09:33.241Z,4.33
2018-07-12T09:12:02.849Z,4.30
2018-07-12T09:14:32.444Z,4.83
2018-07-12T09:17:02.089Z,4.87
2018-07-12T09:19:31.549Z,4.60
2018-07-12T09:22:01.003Z,3.70
2018-07-12T09:24:30.566Z,4.00
2018-07-12T09:27:00.213Z,3.77
2018-07-12T09:29:29.824Z,3.73
2018-07-12T09:31:59.410Z,3.70
2018-07-12T09:34:29.113Z,3.83
2018-07-12T09:36:58.800Z,3.30
2018-07-12T09:39:28.330Z,3.00
2018-07-12T09:41:58.292Z,3.57
2018-07-12T09:44:27.800Z,3.83
2018-07-12T09:46:57.413Z,3.93
2018-07-12T09:49:26.904Z,3.70
2018-07-12T09:51:56.351Z,3.70
2018-07-12T09:54:25.787Z,3.97
2018-07-12T09:57:00.285Z,3.70
2018-07-12T09:59:29.701Z,3.90
2018-07-12T10:02:04.527Z,4.20
2018-07-12T10:04:34.084Z,4.10
2018-07-12T10:07:08.885Z,3.90
2018-07-12T10:09:54.890Z,3.73
2018-07-12T10:12:29.152Z,3.60
2018-07-12T10:15:03.867Z,4.03
2018-07-12T10:17:38.595Z,4.17
2018-07-12T10:20:08.179Z,3.87
2018-07-12T10:22:37.816Z,3.80
2018-07-12T10:25:07.763Z,4.17
2018-07-12T10:27:37.336Z,4.23
2018-07-12T10:30:06.965Z,3.80
2018-07-12T10:32:36.570Z,4.03
2018-07-12T10:35:06.172Z,4.10
2018-07-12T10:37:35.750Z,3.53
2018-07-12T10:40:05.304Z,3.33
2018-07-12T10:42:34.884Z,3.60
2018-07-12T10:45:04.406Z,3.80
2018-07-12T10:47:34.035Z,3.57
2018-07-12T10:50:03.849Z,3.63
2018-07-12T10:52:33.461Z,3.60
2018-07-12T10:55:03.178Z,4.00
2018-07-12T10:57:32.348Z,4.07
2018-07-12T11:00:01.799Z,3.80
2018-07-12T11:02:31.400Z,3.90
2018-07-12T11:05:00.903Z,3.83
2018-07-12T11:07:30.407Z,3.87
2018-07-12T11:09:59.913Z,3.40
2018-07-12T11:12:29.391Z,3.53
2018-07-12T11:14:58.912Z,3.53
2018-07-12T11:17:28.460Z,3.80
2018-07-12T11:19:57.998Z,3.77
2018-07-12T11:22:27.572Z,4.17
2018-07-12T11:24:57.183Z,4.00
2018-07-12T11:27:27.615Z,4.23
2018-07-12T11:29:58.352Z,3.97
2018-07-12T11:32:27.858Z,4.03
2018-07-12T11:34:57.474Z,4.23
2018-07-12T11:37:28.212Z,4.33
2018-07-12T11:39:57.822Z,3.63
2018-07-12T11:42:27.353Z,3.50
2018-07-12T11:44:56.922Z,4.10
2018-07-12T11:47:26.656Z,3.57
2018-07-12T11:49:56.267Z,3.43
2018-07-12T11:52:25.751Z,3.70
2018-07-12T11:54:55.291Z,3.83
2018-07-12T11:57:24.881Z,3.60
2018-07-12T11:59:54.329Z,3.80
2018-07-12T12:02:26.082Z,3.60
2018-07-12T12:04:56.288Z,3.83
2018-07-12T12:07:25.902Z,3.47
2018-07-12T12:09:55.315Z,3.60
2018-07-12T12:12:25.171Z,3.37
2018-07-12T12:14:54.963Z,3.63
2018-07-12T12:17:24.374Z,3.33
2018-07-12T12:19:53.855Z,3.33
2018-07-12T12:22:23.365Z,3.90
2018-07-12T12:24:52.948Z,3.47
2018-07-12T12:27:22.466Z,3.90
2018-07-12T12:29:51.932Z,3.50
2018-07-12T12:32:21.399Z,3.70
2018-07-12T12:34:50.956Z,3.70
2018-07-12T12:37:20.543Z,3.80
2018-07-12T12:39:50.150Z,3.50
2018-07-12T12:42:19.650Z,3.40
2018-07-12T12:44:49.230Z,3.47
2018-07-12T12:47:18.717Z,3.10
2018-07-12T12:49:48.377Z,3.50
2018-07-12T12:52:18.089Z,3.20
2018-07-12T12:54:48.043Z,3.57
2018-07-12T12:57:18.098Z,3.20
2018-07-12T12:59:47.846Z,3.37
2018-07-12T13:02:21.634Z,3.30
2018-07-12T13:04:51.362Z,3.30
2018-07-12T13:07:20.976Z,3.40
2018-07-12T13:09:50.544Z,3.73
2018-07-12T13:12:20.205Z,3.33
2018-07-12T13:14:49.827Z,3.30
2018-07-12T13:17:19.573Z,3.40
2018-07-12T13:19:49.185Z,3.80
2018-07-12T13:22:18.967Z,3.20
2018-07-12T13:24:49.466Z,3.40
2018-07-12T13:27:19.123Z,3.30
2018-07-12T13:29:48.841Z,3.70
2018-07-12T13:32:18.390Z,3.30
2018-07-12T13:34:48.066Z,3.80
2018-07-12T13:37:17.850Z,3.40
2018-07-12T13:39:47.535Z,3.37
2018-07-12T13:42:17.157Z,3.37
2018-07-12T13:44:46.886Z,3.43
2018-07-12T13:47:16.426Z,2.90
2018-07-12T13:49:46.014Z,3.03
2018-07-12T13:52:16.280Z,3.40
2018-07-12T13:54:45.820Z,3.10
2018-07-12T13:57:15.317Z,2.93
2018-07-12T13:59:44.908Z,3.03
2018-07-12T14:02:14.484Z,3.07
2018-07-12T14:04:44.089Z,3.13
2018-07-12T14:07:13.650Z,3.00
2018-07-12T14:09:43.181Z,2.83
2018-07-12T14:12:12.820Z,3.10
2018-07-12T14:14:42.020Z,3.17
2018-07-12T14:17:11.428Z,2.70
2018-07-12T14:19:40.930Z,3.20
2018-07-12T14:22:10.370Z,3.13
2018-07-12T14:24:39.933Z,2.90
2018-07-12T14:27:09.513Z,3.13
2018-07-12T14:29:38.979Z,3.07
2018-07-12T14:32:08.460Z,3.10
2018-07-12T14:34:37.916Z,3.00
2018-07-12T14:37:07.428Z,2.90
2018-07-12T14:39:36.882Z,2.57
2018-07-12T14:42:08.367Z,2.80
2018-07-12T14:44:37.887Z,3.10
2018-07-12T14:47:07.709Z,2.70
2018-07-12T14:49:37.399Z,2.90
2018-07-12T14:52:06.909Z,2.90
2018-07-12T14:54:36.537Z,2.73
2018-07-12T14:57:06.133Z,2.60
2018-07-12T14:59:35.641Z,2.83
2018-07-12T15:02:05.178Z,2.70
2018-07-12T15:04:34.683Z,2.60
2018-07-12T15:07:04.272Z,2.60
2018-07-12T15:09:33.756Z,2.80
2018-07-12T15:12:03.280Z,2.80
2018-07-12T15:14:33.053Z,3.03
2018-07-12T15:17:02.641Z,2.87
2018-07-12T15:19:32.200Z,2.60
2018-07-12T15:22:01.728Z,2.70
2018-07-12T15:24:31.322Z,3.13
2018-07-12T15:27:00.959Z,2.80
2018-07-12T15:29:30.587Z,2.50
2018-07-12T15:32:00.081Z,2.57
2018-07-12T15:34:29.640Z,2.60
2018-07-12T15:36:59.103Z,2.63
2018-07-12T15:39:28.710Z,2.50
2018-07-12T15:41:58.219Z,2.53
2018-07-12T15:44:27.829Z,2.70
2018-07-12T15:46:57.391Z,2.60
2018-07-12T15:49:26.872Z,2.83
2018-07-12T15:51:56.667Z,2.63
2018-07-12T15:54:26.265Z,2.37
2018-07-12T15:56:55.835Z,2.50
2018-07-12T15:59:25.049Z,2.70
2018-07-12T16:01:54.519Z,2.40
2018-07-12T16:04:24.109Z,2.30
2018-07-12T16:06:53.877Z,2.30
2018-07-12T16:09:23.488Z,2.37
2018-07-12T16:11:53.044Z,2.60
2018-07-12T16:14:22.760Z,2.47
2018-07-12T16:16:52.506Z,2.60
2018-07-12T16:19:22.170Z,2.50
2018-07-12T16:21:51.918Z,2.57
2018-07-12T16:24:21.532Z,2.37
2018-07-12T16:26:51.019Z,2.60
2018-07-12T16:29:20.581Z,2.57
2018-07-12T16:31:49.732Z,2.83
2018-07-12T16:34:19.104Z,2.80
2018-07-12T16:36:48.754Z,2.60
2018-07-12T16:39:18.268Z,2.83
2018-07-12T16:41:47.884Z,2.80
2018-07-12T16:44:18.123Z,2.73
2018-07-12T16:46:47.648Z,2.70
2018-07-12T16:49:17.195Z,3.23
2018-07-12T16:51:46.828Z,2.63
2018-07-12T16:54:16.379Z,2.67
2018-07-12T16:56:45.949Z,2.60
2018-07-12T16:59:16.543Z,2.70
2018-07-12T17:01:46.099Z,2.60
2018-07-12T17:04:15.811Z,2.53
2018-07-12T17:06:45.475Z,2.47
2018-07-12T17:09:15.136Z,2.70
2018-07-12T17:11:46.873Z,2.63
2018-07-12T17:14:16.540Z,2.67
2018-07-12T17:16:46.322Z,2.80
2018-07-12T17:19:16.038Z,2.70
2018-07-12T17:21:45.635Z,2.90
2018-07-12T17:24:15.189Z,2.87
2018-07-12T17:26:44.385Z,2.83
2018-07-12T17:29:13.882Z,2.40
2018-07-12T17:31:43.684Z,2.57
2018-07-12T17:34:13.224Z,2.90
2018-07-12T17:36:42.385Z,2.73
2018-07-12T17:39:11.905Z,2.97
2018-07-12T17:41:41.618Z,3.00
2018-07-12T17:44:11.227Z,2.83
2018-07-12T17:46:40.843Z,3.20
2018-07-12T17:49:10.446Z,2.90
2018-07-12T17:51:40.020Z,3.27
2018-07-12T17:54:09.771Z,3.47
2018-07-12T17:56:39.695Z,3.20
2018-07-12T17:59:09.316Z,3.30
2018-07-12T18:01:38.997Z,3.40
2018-07-12T18:04:08.589Z,2.90
2018-07-12T18:06:38.207Z,3.20
2018-07-12T18:09:08.266Z,2.90
2018-07-12T18:11:37.875Z,3.27
2018-07-12T18:14:07.695Z,2.80
2018-07-12T18:16:37.490Z,3.57
2018-07-12T18:19:07.184Z,3.50
2018-07-12T18:21:37.374Z,3.10
2018-07-12T18:24:07.058Z,3.50
2018-07-12T18:26:36.670Z,3.53
2018-07-12T18:29:06.574Z,3.23
2018-07-12T18:31:36.208Z,3.40
2018-07-12T18:34:06.019Z,3.40
2018-07-12T18:36:35.705Z,3.40
2018-07-12T18:39:07.164Z,3.47
2018-07-12T18:41:37.361Z,3.70
2018-07-12T18:44:07.157Z,3.70
2018-07-12T18:46:36.687Z,3.40
2018-07-12T18:49:06.345Z,3.73
2018-07-12T18:51:36.481Z,3.57
2018-07-12T18:54:06.107Z,3.77
2018-07-12T18:56:35.792Z,3.87
2018-07-12T18:59:05.509Z,4.00
2018-07-12T19:01:35.118Z,4.20
2018-07-12T19:04:05.016Z,4.30
2018-07-12T19:06:34.750Z,4.10
2018-07-12T19:09:04.801Z,3.93
2018-07-12T19:11:34.377Z,3.87
2018-07-12T19:14:04.015Z,4.30
2018-07-12T19:16:33.606Z,4.10
2018-07-12T19:19:02.813Z,4.10
2018-07-12T19:21:32.481Z,4.00
2018-07-12T19:24:02.037Z,3.93
2018-07-12T19:26:31.671Z,4.10
2018-07-12T19:29:01.365Z,4.23
2018-07-12T19:31:30.980Z,4.43
2018-07-12T19:34:00.556Z,4.40
2018-07-12T19:36:30.062Z,4.20
2018-07-12T19:39:00.316Z,4.10
2018-07-12T19:41:30.091Z,4.40
2018-07-12T19:43:59.988Z,4.40
2018-07-12T19:46:30.564Z,4.30
2018-07-12T19:49:00.266Z,4.40
2018-07-12T19:51:30.241Z,4.23
2018-07-12T19:53:59.746Z,4.03
2018-07-12T19:56:29.947Z,4.20
2018-07-12T19:59:00.074Z,4.50
2018-07-12T20:01:29.749Z,3.90
2018-07-12T20:03:59.338Z,4.57
2018-07-12T20:06:29.030Z,4.33
2018-07-12T20:08:59.329Z,3.60
2018-07-12T20:11:29.974Z,4.43
2018-07-12T20:13:59.596Z,4.07
2018-07-12T20:16:29.296Z,4.10
2018-07-12T20:18:59.017Z,4.70
2018-07-12T20:21:33.943Z,4.27
2018-07-12T20:24:03.689Z,3.97
2018-07-12T20:26:33.240Z,4.43
2018-07-12T20:29:02.746Z,4.60
2018-07-12T20:31:32.302Z,4.37
2018-07-12T20:34:01.898Z,3.90
2018-07-12T20:36:31.404Z,4.60
2018-07-12T20:39:00.876Z,4.20
2018-07-12T20:41:30.532Z,4.00
2018-07-12T20:44:00.005Z,3.90
2018-07-12T20:46:29.548Z,4.07
2018-07-12T20:48:59.059Z,4.67
2018-07-12T20:51:30.469Z,4.50
2018-07-12T20:54:00.022Z,4.23
2018-07-12T20:56:29.651Z,4.60
2018-07-12T20:58:59.149Z,4.20
2018-07-12T21:01:28.852Z,4.60
2018-07-12T21:03:58.483Z,4.57
2018-07-12T21:06:28.086Z,4.50
2018-07-12T21:08:57.658Z,4.70
2018-07-12T21:11:27.242Z,4.63
2018-07-12T21:13:56.817Z,4.63
2018-07-12T21:16:26.347Z,4.47
2018-07-12T21:18:55.907Z,4.40
2018-07-12T21:21:25.463Z,4.27
2018-07-12T21:23:55.256Z,4.63
2018-07-12T21:26:24.864Z,4.60
2018-07-12T21:28:54.358Z,4.60
2018-07-12T21:31:24.001Z,4.60
2018-07-12T21:33:53.524Z,5.03
2018-07-12T21:36:23.133Z,5.17
2018-07-12T21:38:53.025Z,4.67
2018-07-12T21:41:22.639Z,4.87
2018-07-12T21:43:52.194Z,4.60
2018-07-12T21:46:21.959Z,4.93
2018-07-12T21:48:51.458Z,5.27
2018-07-12T21:51:21.155Z,5.27
2018-07-12T21:53:50.897Z,5.40
2018-07-12T21:56:20.588Z,4.87
2018-07-12T21:58:50.221Z,5.37
2018-07-12T22:01:19.880Z,4.87
2018-07-12T22:03:49.480Z,5.20
2018-07-12T22:06:26.754Z,4.77
2018-07-12T22:08:56.343Z,5.37
2018-07-12T22:11:25.956Z,4.87
2018-07-12T22:13:55.490Z,5.30
2018-07-12T22:16:25.075Z,5.33
2018-07-12T22:18:54.789Z,5.30
2018-07-12T22:21:24.274Z,5.17
2018-07-12T22:23:53.908Z,5.40
2018-07-12T22:26:23.420Z,5.50
2018-07-12T22:28:52.537Z,5.10
2018-07-12T22:31:21.986Z,5.30
2018-07-12T22:33:51.508Z,5.33
2018-07-12T22:36:21.017Z,5.17
2018-07-12T22:38:50.558Z,4.93
2018-07-12T22:41:20.167Z,5.20
2018-07-12T22:43:49.751Z,5.30
2018-07-12T22:46:19.388Z,5.50
2018-07-12T22:48:49.135Z,5.23
2018-07-12T22:51:18.716Z,5.60
2018-07-12T22:53:48.224Z,6.00
2018-07-12T22:56:17.838Z,5.60
2018-07-12T22:58:47.155Z,6.00
2018-07-12T23:01:16.574Z,5.50
2018-07-12T23:03:46.108Z,5.73
2018-07-12T23:06:15.667Z,5.50
2018-07-12T23:08:45.279Z,5.83
2018-07-12T23:11:14.897Z,5.30
2018-07-12T23:13:44.431Z,6.00
2018-07-12T23:16:13.943Z,5.57
2018-07-12T23:18:43.518Z,5.60
2018-07-12T23:21:12.997Z,6.23
2018-07-12T23:23:42.536Z,5.90
2018-07-12T23:26:12.048Z,5.60
2018-07-12T23:28:41.523Z,5.70
2018-07-12T23:31:11.151Z,5.07
2018-07-12T23:33:40.782Z,6.20
2018-07-12T23:36:10.336Z,6.27
2018-07-12T23:38:39.900Z,5.93
2018-07-12T23:41:09.448Z,5.90
2018-07-12T23:43:38.975Z,5.30
2018-07-12T23:46:08.616Z,5.50
2018-07-12T23:48:38.200Z,5.40
2018-07-12T23:51:07.893Z,5.37
2018-07-12T23:53:37.467Z,5.20
2018-07-12T23:56:07.004Z,5.50
2018-07-12T23:58:36.664Z,5.73
